Gananoque, Canada
Current Conditions -  °F | °C
As of 11:00 PM on Tuesday 27 Jan 2015 (Local Time) from CYGK Reporting Station
Overcast Overcast  
Wind Chill:   Ceiling: 23000
Heat Index:   Visibility: 15mi
Dew Point: -6°   Wind: 5mph
Humidity: 52%   Direction: 300°WNW
Pressure: 30.06"   Gusts: NA
Location:  44.33°N, 76.16°W
Report Text: CYGK 280400Z 30004KT 15SM OVC230 M13/M21 A3006 RMK CI8 LAST STFD OBS/NEXT 281100 UTC SLP187
Loading
Personal Weather Stations






























Interactive Weather Map New forecast layout! Learn more

10-Day Weather Forecast

Advertisements
Track Severe Weather on mobile